sensor_id;sensor_type;location;lat;lon;timestamp;pressure;altitude;pressure_sealevel;temperature;humidity
74708;BME280;63360;50.104;8.074;2022-09-29T00:00:42;95684.31;;;4.58;100.00
74708;BME280;63360;50.104;8.074;2022-09-29T00:03:09;95682.81;;;4.48;100.00
74708;BME280;63360;50.104;8.074;2022-09-29T00:05:35;95671.13;;;4.42;100.00
74708;BME280;63360;50.104;8.074;2022-09-29T00:08:01;95681.59;;;4.54;100.00
74708;BME280;63360;50.104;8.074;2022-09-29T00:10:28;95671.59;;;4.53;100.00
74708;BME280;63360;50.104;8.074;2022-09-29T00:12:54;95678.72;;;4.47;100.00
74708;BME280;63360;50.104;8.074;2022-09-29T00:15:21;95670.81;;;4.35;100.00
74708;BME280;63360;50.104;8.074;2022-09-29T00:17:47;95672.63;;;4.35;100.00
74708;BME280;63360;50.104;8.074;2022-09-29T00:20:34;95673.25;;;4.32;100.00
74708;BME280;63360;50.104;8.074;2022-09-29T00:23:00;95670.81;;;4.26;100.00
74708;BME280;63360;50.104;8.074;2022-09-29T00:25:27;95677.16;;;4.29;100.00
74708;BME280;63360;50.104;8.074;2022-09-29T00:27:53;95677.75;;;4.26;100.00
74708;BME280;63360;50.104;8.074;2022-09-29T00:30:20;95668.22;;;4.18;100.00
74708;BME280;63360;50.104;8.074;2022-09-29T00:32:46;95678.09;;;4.24;100.00
74708;BME280;63360;50.104;8.074;2022-09-29T00:35:12;95685.63;;;4.21;100.00
74708;BME280;63360;50.104;8.074;2022-09-29T00:37:39;95677.78;;;4.17;100.00
74708;BME280;63360;50.104;8.074;2022-09-29T00:40:06;95684.09;;;4.11;100.00
74708;BME280;63360;50.104;8.074;2022-09-29T00:42:33;95679.25;;;4.10;100.00
74708;BME280;63360;50.104;8.074;2022-09-29T00:45:13;95668.63;;;4.03;100.00
74708;BME280;63360;50.104;8.074;2022-09-29T00:47:44;95667.09;;;3.93;100.00
74708;BME280;63360;50.104;8.074;2022-09-29T00:50:20;95670.44;;;3.94;100.00
74708;BME280;63360;50.104;8.074;2022-09-29T00:52:53;95666.34;;;3.93;100.00
74708;BME280;63360;50.104;8.074;2022-09-29T00:57:58;95677.06;;;3.86;100.00
74708;BME280;63360;50.104;8.074;2022-09-29T01:00:27;95669.81;;;3.88;100.00
74708;BME280;63360;50.104;8.074;2022-09-29T01:03:09;95655.84;;;3.81;100.00
74708;BME280;63360;50.104;8.074;2022-09-29T01:05:44;95667.53;;;3.87;100.00
74708;BME280;63360;50.104;8.074;2022-09-29T01:08:16;95650.88;;;3.84;100.00
74708;BME280;63360;50.104;8.074;2022-09-29T01:10:46;95663.31;;;3.91;100.00
74708;BME280;63360;50.104;8.074;2022-09-29T01:13:13;95654.53;;;3.83;100.00
74708;BME280;63360;50.104;8.074;2022-09-29T01:15:40;95660.25;;;3.80;100.00
74708;BME280;63360;50.104;8.074;2022-09-29T01:18:06;95651.63;;;3.76;100.00
74708;BME280;63360;50.104;8.074;2022-09-29T01:20:39;95658.44;;;3.81;100.00
74708;BME280;63360;50.104;8.074;2022-09-29T01:26:17;95659.59;;;3.66;100.00
74708;BME280;63360;50.104;8.074;2022-09-29T01:29:53;95652.75;;;3.53;100.00
74708;BME280;63360;50.104;8.074;2022-09-29T01:31:57;95655.50;;;3.56;100.00
74708;BME280;63360;50.104;8.074;2022-09-29T01:37:23;95654.72;;;3.56;100.00
74708;BME280;63360;50.104;8.074;2022-09-29T01:40:01;95651.06;;;3.48;100.00
74708;BME280;63360;50.104;8.074;2022-09-29T01:42:35;95659.88;;;3.56;100.00
74708;BME280;63360;50.104;8.074;2022-09-29T01:45:17;95658.34;;;3.55;100.00
74708;BME280;63360;50.104;8.074;2022-09-29T01:47:49;95654.50;;;3.44;100.00
74708;BME280;63360;50.104;8.074;2022-09-29T01:50:26;95652.69;;;3.44;100.00
74708;BME280;63360;50.104;8.074;2022-09-29T01:52:59;95653.41;;;3.36;100.00
74708;BME280;63360;50.104;8.074;2022-09-29T01:55:30;95654.59;;;3.30;100.00
74708;BME280;63360;50.104;8.074;2022-09-29T01:58:04;95647.50;;;3.27;100.00
74708;BME280;63360;50.104;8.074;2022-09-29T02:00:39;95655.66;;;3.29;100.00
74708;BME280;63360;50.104;8.074;2022-09-29T02:03:28;95664.91;;;3.39;100.00
74708;BME280;63360;50.104;8.074;2022-09-29T02:06:01;95664.16;;;3.38;100.00
74708;BME280;63360;50.104;8.074;2022-09-29T02:08:42;95662.34;;;3.39;100.00
74708;BME280;63360;50.104;8.074;2022-09-29T02:11:11;95656.88;;;3.32;100.00
74708;BME280;63360;50.104;8.074;2022-09-29T02:13:53;95661.00;;;3.41;100.00
74708;BME280;63360;50.104;8.074;2022-09-29T02:16:27;95658.41;;;3.41;100.00
74708;BME280;63360;50.104;8.074;2022-09-29T02:21:24;95663.75;;;3.45;100.00
74708;BME280;63360;50.104;8.074;2022-09-29T02:23:52;95665.09;;;3.42;100.00
74708;BME280;63360;50.104;8.074;2022-09-29T02:26:20;95672.75;;;3.34;100.00
74708;BME280;63360;50.104;8.074;2022-09-29T02:28:46;95667.75;;;3.29;100.00
74708;BME280;63360;50.104;8.074;2022-09-29T02:31:13;95658.00;;;3.17;100.00
74708;BME280;63360;50.104;8.074;2022-09-29T02:33:39;95655.78;;;3.24;100.00
74708;BME280;63360;50.104;8.074;2022-09-29T02:38:42;95670.19;;;3.34;100.00
74708;BME280;63360;50.104;8.074;2022-09-29T02:41:14;95675.84;;;3.22;100.00
74708;BME280;63360;50.104;8.074;2022-09-29T02:49:02;95672.69;;;3.25;100.00
74708;BME280;63360;50.104;8.074;2022-09-29T02:51:38;95671.84;;;3.30;100.00
74708;BME280;63360;50.104;8.074;2022-09-29T02:54:17;95671.06;;;3.29;100.00
74708;BME280;63360;50.104;8.074;2022-09-29T02:57:42;95675.75;;;3.27;100.00
74708;BME280;63360;50.104;8.074;2022-09-29T03:00:16;95671.19;;;3.24;100.00
74708;BME280;63360;50.104;8.074;2022-09-29T03:02:43;95674.34;;;3.21;100.00
74708;BME280;63360;50.104;8.074;2022-09-29T03:05:13;95678.13;;;3.24;100.00
74708;BME280;63360;50.104;8.074;2022-09-29T03:07:40;95672.19;;;3.15;100.00
74708;BME280;63360;50.104;8.074;2022-09-29T03:10:08;95668.00;;;3.19;100.00
74708;BME280;63360;50.104;8.074;2022-09-29T03:12:35;95677.03;;;3.16;100.00
74708;BME280;63360;50.104;8.074;2022-09-29T03:15:02;95673.28;;;3.22;100.00
74708;BME280;63360;50.104;8.074;2022-09-29T03:17:29;95655.84;;;3.11;100.00
74708;BME280;63360;50.104;8.074;2022-09-29T03:19:56;95669.38;;;3.25;100.00
74708;BME280;63360;50.104;8.074;2022-09-29T03:22:23;95663.50;;;3.24;100.00
74708;BME280;63360;50.104;8.074;2022-09-29T03:24:50;95665.47;;;3.27;100.00
74708;BME280;63360;50.104;8.074;2022-09-29T03:27:16;95656.50;;;3.25;100.00
74708;BME280;63360;50.104;8.074;2022-09-29T03:29:43;95664.84;;;3.22;100.00
74708;BME280;63360;50.104;8.074;2022-09-29T03:32:09;95653.38;;;3.28;100.00
74708;BME280;63360;50.104;8.074;2022-09-29T03:34:36;95665.16;;;3.29;100.00
74708;BME280;63360;50.104;8.074;2022-09-29T03:37:03;95664.88;;;3.30;100.00
74708;BME280;63360;50.104;8.074;2022-09-29T03:39:29;95663.19;;;3.26;100.00
74708;BME280;63360;50.104;8.074;2022-09-29T03:41:56;95676.84;;;3.35;100.00
74708;BME280;63360;50.104;8.074;2022-09-29T03:44:22;95665.56;;;3.22;100.00
74708;BME280;63360;50.104;8.074;2022-09-29T03:46:49;95676.03;;;3.26;100.00
74708;BME280;63360;50.104;8.074;2022-09-29T03:49:15;95677.97;;;3.20;100.00
74708;BME280;63360;50.104;8.074;2022-09-29T03:51:42;95675.25;;;3.17;100.00
74708;BME280;63360;50.104;8.074;2022-09-29T03:54:09;95674.47;;;3.16;100.00
74708;BME280;63360;50.104;8.074;2022-09-29T03:56:36;95680.97;;;3.14;100.00
74708;BME280;63360;50.104;8.074;2022-09-29T03:59:04;95677.63;;;3.13;100.00
74708;BME280;63360;50.104;8.074;2022-09-29T04:01:31;95672.19;;;3.15;100.00
74708;BME280;63360;50.104;8.074;2022-09-29T04:03:57;95675.63;;;3.10;100.00
74708;BME280;63360;50.104;8.074;2022-09-29T04:06:24;95683.59;;;3.00;100.00
74708;BME280;63360;50.104;8.074;2022-09-29T04:08:50;95687.91;;;2.91;100.00
74708;BME280;63360;50.104;8.074;2022-09-29T04:11:16;95690.47;;;2.91;100.00
74708;BME280;63360;50.104;8.074;2022-09-29T04:13:43;95694.63;;;3.00;100.00
74708;BME280;63360;50.104;8.074;2022-09-29T04:16:09;95704.59;;;3.02;100.00
74708;BME280;63360;50.104;8.074;2022-09-29T04:18:36;95704.28;;;3.03;100.00
74708;BME280;63360;50.104;8.074;2022-09-29T04:21:07;95691.75;;;3.02;100.00
74708;BME280;63360;50.104;8.074;2022-09-29T04:23:34;95699.75;;;3.00;100.00
74708;BME280;63360;50.104;8.074;2022-09-29T04:26:01;95687.78;;;2.96;100.00
74708;BME280;63360;50.104;8.074;2022-09-29T04:28:30;95690.22;;;3.01;100.00
74708;BME280;63360;50.104;8.074;2022-09-29T04:30:57;95690.06;;;2.97;100.00
74708;BME280;63360;50.104;8.074;2022-09-29T04:33:23;95696.44;;;3.00;100.00
74708;BME280;63360;50.104;8.074;2022-09-29T04:35:50;95701.13;;;3.06;100.00
74708;BME280;63360;50.104;8.074;2022-09-29T04:38:16;95693.41;;;2.98;100.00
74708;BME280;63360;50.104;8.074;2022-09-29T04:40:43;95693.09;;;2.99;100.00
74708;BME280;63360;50.104;8.074;2022-09-29T04:43:09;95703.44;;;3.08;100.00
74708;BME280;63360;50.104;8.074;2022-09-29T04:45:36;95701.44;;;3.05;100.00
74708;BME280;63360;50.104;8.074;2022-09-29T04:48:02;95685.06;;;2.92;100.00
74708;BME280;63360;50.104;8.074;2022-09-29T04:50:29;95710.19;;;3.04;100.00
74708;BME280;63360;50.104;8.074;2022-09-29T04:52:56;95698.13;;;3.04;100.00
74708;BME280;63360;50.104;8.074;2022-09-29T04:55:22;95692.97;;;3.04;100.00
74708;BME280;63360;50.104;8.074;2022-09-29T04:57:48;95691.16;;;3.05;100.00
74708;BME280;63360;50.104;8.074;2022-09-29T05:00:15;95697.84;;;3.06;100.00
74708;BME280;63360;50.104;8.074;2022-09-29T05:02:41;95694.78;;;3.04;100.00
74708;BME280;63360;50.104;8.074;2022-09-29T05:05:15;95699.63;;;3.05;100.00
74708;BME280;63360;50.104;8.074;2022-09-29T05:07:41;95702.50;;;3.04;100.00
74708;BME280;63360;50.104;8.074;2022-09-29T05:10:08;95704.00;;;3.05;100.00
74708;BME280;63360;50.104;8.074;2022-09-29T05:12:35;95701.44;;;3.05;100.00
74708;BME280;63360;50.104;8.074;2022-09-29T05:15:02;95705.06;;;3.04;100.00
74708;BME280;63360;50.104;8.074;2022-09-29T05:17:30;95698.81;;;2.96;100.00
74708;BME280;63360;50.104;8.074;2022-09-29T05:19:56;95703.19;;;2.96;100.00
74708;BME280;63360;50.104;8.074;2022-09-29T05:22:22;95699.03;;;2.86;100.00
74708;BME280;63360;50.104;8.074;2022-09-29T05:24:51;95714.00;;;2.84;100.00
74708;BME280;63360;50.104;8.074;2022-09-29T05:27:18;95713.88;;;2.89;100.00
74708;BME280;63360;50.104;8.074;2022-09-29T05:29:44;95714.63;;;2.90;100.00
74708;BME280;63360;50.104;8.074;2022-09-29T05:32:11;95717.66;;;2.92;100.00
74708;BME280;63360;50.104;8.074;2022-09-29T05:34:38;95712.34;;;2.88;100.00
74708;BME280;63360;50.104;8.074;2022-09-29T05:37:04;95716.50;;;2.98;100.00
74708;BME280;63360;50.104;8.074;2022-09-29T05:39:31;95725.44;;;3.00;100.00
74708;BME280;63360;50.104;8.074;2022-09-29T05:42:00;95707.97;;;2.89;100.00
74708;BME280;63360;50.104;8.074;2022-09-29T05:44:28;95713.19;;;2.97;100.00
74708;BME280;63360;50.104;8.074;2022-09-29T05:46:54;95715.63;;;3.02;100.00
74708;BME280;63360;50.104;8.074;2022-09-29T05:49:20;95728.25;;;3.13;100.00
74708;BME280;63360;50.104;8.074;2022-09-29T05:51:48;95717.97;;;3.13;100.00
74708;BME280;63360;50.104;8.074;2022-09-29T05:54:14;95724.22;;;3.20;100.00
74708;BME280;63360;50.104;8.074;2022-09-29T05:56:41;95736.78;;;3.22;100.00
74708;BME280;63360;50.104;8.074;2022-09-29T05:59:10;95733.13;;;3.23;100.00
74708;BME280;63360;50.104;8.074;2022-09-29T06:01:37;95727.88;;;3.28;100.00
74708;BME280;63360;50.104;8.074;2022-09-29T06:04:04;95728.19;;;3.26;100.00
74708;BME280;63360;50.104;8.074;2022-09-29T06:06:30;95729.09;;;3.30;100.00
74708;BME280;63360;50.104;8.074;2022-09-29T06:08:58;95733.38;;;3.35;100.00
74708;BME280;63360;50.104;8.074;2022-09-29T06:11:27;95728.88;;;3.40;100.00
74708;BME280;63360;50.104;8.074;2022-09-29T06:13:54;95744.81;;;3.51;100.00
74708;BME280;63360;50.104;8.074;2022-09-29T06:16:23;95734.81;;;3.49;100.00
74708;BME280;63360;50.104;8.074;2022-09-29T06:18:50;95734.94;;;3.66;100.00
74708;BME280;63360;50.104;8.074;2022-09-29T06:21:23;95736.56;;;3.62;100.00
74708;BME280;63360;50.104;8.074;2022-09-29T06:23:52;95722.84;;;3.67;100.00
74708;BME280;63360;50.104;8.074;2022-09-29T06:26:19;95723.13;;;3.65;100.00
74708;BME280;63360;50.104;8.074;2022-09-29T06:28:49;95736.66;;;3.80;100.00
74708;BME280;63360;50.104;8.074;2022-09-29T06:31:18;95736.97;;;3.87;100.00
74708;BME280;63360;50.104;8.074;2022-09-29T06:33:45;95728.53;;;3.95;100.00
74708;BME280;63360;50.104;8.074;2022-09-29T06:36:17;95731.91;;;4.04;100.00
74708;BME280;63360;50.104;8.074;2022-09-29T06:39:04;95739.34;;;4.14;100.00
74708;BME280;63360;50.104;8.074;2022-09-29T06:41:31;95746.34;;;4.22;100.00
74708;BME280;63360;50.104;8.074;2022-09-29T06:43:58;95756.69;;;4.31;100.00
74708;BME280;63360;50.104;8.074;2022-09-29T06:46:24;95749.44;;;4.41;100.00
74708;BME280;63360;50.104;8.074;2022-09-29T06:48:53;95744.16;;;4.46;100.00
74708;BME280;63360;50.104;8.074;2022-09-29T06:51:23;95739.31;;;4.53;100.00
74708;BME280;63360;50.104;8.074;2022-09-29T06:54:06;95749.03;;;4.73;100.00
74708;BME280;63360;50.104;8.074;2022-09-29T06:56:37;95739.66;;;4.77;100.00
74708;BME280;63360;50.104;8.074;2022-09-29T06:59:04;95747.53;;;4.72;100.00
74708;BME280;63360;50.104;8.074;2022-09-29T07:01:31;95759.06;;;4.83;100.00
74708;BME280;63360;50.104;8.074;2022-09-29T07:03:57;95753.59;;;5.02;100.00
74708;BME280;63360;50.104;8.074;2022-09-29T07:06:25;95759.53;;;5.03;100.00
74708;BME280;63360;50.104;8.074;2022-09-29T07:08:56;95750.28;;;5.19;100.00
74708;BME280;63360;50.104;8.074;2022-09-29T07:11:24;95754.97;;;5.25;100.00
74708;BME280;63360;50.104;8.074;2022-09-29T07:13:51;95748.72;;;5.43;100.00
74708;BME280;63360;50.104;8.074;2022-09-29T07:16:20;95754.16;;;5.59;100.00
74708;BME280;63360;50.104;8.074;2022-09-29T07:18:49;95747.91;;;5.77;100.00
74708;BME280;63360;50.104;8.074;2022-09-29T07:21:17;95746.81;;;5.95;100.00
74708;BME280;63360;50.104;8.074;2022-09-29T07:23:45;95752.94;;;6.20;100.00
74708;BME280;63360;50.104;8.074;2022-09-29T07:26:13;95755.47;;;6.29;100.00
74708;BME280;63360;50.104;8.074;2022-09-29T07:28:40;95752.53;;;6.39;100.00
74708;BME280;63360;50.104;8.074;2022-09-29T07:31:09;95768.50;;;6.70;100.00
74708;BME280;63360;50.104;8.074;2022-09-29T07:33:41;95759.56;;;6.88;100.00
74708;BME280;63360;50.104;8.074;2022-09-29T07:36:08;95777.66;;;7.09;100.00
74708;BME280;63360;50.104;8.074;2022-09-29T07:38:35;95763.50;;;7.27;100.00
74708;BME280;63360;50.104;8.074;2022-09-29T07:41:03;95773.50;;;7.37;100.00
74708;BME280;63360;50.104;8.074;2022-09-29T07:43:30;95775.97;;;7.46;100.00
74708;BME280;63360;50.104;8.074;2022-09-29T07:45:57;95773.75;;;7.56;100.00
74708;BME280;63360;50.104;8.074;2022-09-29T07:48:28;95784.25;;;7.72;100.00
74708;BME280;63360;50.104;8.074;2022-09-29T07:51:12;95780.66;;;7.85;100.00
74708;BME280;63360;50.104;8.074;2022-09-29T07:53:39;95776.97;;;7.86;100.00
74708;BME280;63360;50.104;8.074;2022-09-29T07:56:11;95773.88;;;7.92;100.00
74708;BME280;63360;50.104;8.074;2022-09-29T07:58:38;95777.44;;;8.00;100.00
74708;BME280;63360;50.104;8.074;2022-09-29T08:01:08;95774.00;;;8.08;100.00
74708;BME280;63360;50.104;8.074;2022-09-29T08:03:37;95786.63;;;8.22;100.00
74708;BME280;63360;50.104;8.074;2022-09-29T08:06:05;95782.97;;;8.23;100.00
74708;BME280;63360;50.104;8.074;2022-09-29T08:08:33;95785.59;;;8.47;100.00
74708;BME280;63360;50.104;8.074;2022-09-29T08:11:05;95784.63;;;8.51;100.00
74708;BME280;63360;50.104;8.074;2022-09-29T08:13:32;95773.28;;;8.44;100.00
74708;BME280;63360;50.104;8.074;2022-09-29T08:16:00;95795.94;;;8.71;100.00
74708;BME280;63360;50.104;8.074;2022-09-29T08:18:28;95794.00;;;8.68;100.00
74708;BME280;63360;50.104;8.074;2022-09-29T08:20:55;95798.22;;;8.61;100.00
74708;BME280;63360;50.104;8.074;2022-09-29T08:23:27;95799.22;;;8.56;100.00
74708;BME280;63360;50.104;8.074;2022-09-29T08:26:10;95788.63;;;8.61;100.00
74708;BME280;63360;50.104;8.074;2022-09-29T08:28:37;95807.31;;;8.67;100.00
74708;BME280;63360;50.104;8.074;2022-09-29T08:31:07;95804.72;;;8.67;100.00
74708;BME280;63360;50.104;8.074;2022-09-29T08:33:35;95798.66;;;8.63;100.00
74708;BME280;63360;50.104;8.074;2022-09-29T08:36:02;95810.00;;;8.70;100.00
74708;BME280;63360;50.104;8.074;2022-09-29T08:38:31;95812.38;;;8.75;100.00
74708;BME280;63360;50.104;8.074;2022-09-29T08:41:03;95814.63;;;8.77;100.00
74708;BME280;63360;50.104;8.074;2022-09-29T08:43:40;95807.94;;;8.76;99.99
74708;BME280;63360;50.104;8.074;2022-09-29T08:47:03;95809.66;;;8.84;99.86
74708;BME280;63360;50.104;8.074;2022-09-29T08:49:10;95814.53;;;8.85;99.42
74708;BME280;63360;50.104;8.074;2022-09-29T08:52:03;95826.41;;;8.86;98.46
74708;BME280;63360;50.104;8.074;2022-09-29T08:54:44;95817.78;;;8.82;97.62
74708;BME280;63360;50.104;8.074;2022-09-29T08:57:17;95824.91;;;8.85;97.72
74708;BME280;63360;50.104;8.074;2022-09-29T08:59:53;95822.41;;;8.77;98.01
74708;BME280;63360;50.104;8.074;2022-09-29T09:02:45;95827.38;;;8.82;97.18
74708;BME280;63360;50.104;8.074;2022-09-29T09:11:35;95834.41;;;8.81;97.05
74708;BME280;63360;50.104;8.074;2022-09-29T09:14:22;95833.00;;;8.84;98.59
74708;BME280;63360;50.104;8.074;2022-09-29T09:22:21;95841.94;;;8.86;95.79
74708;BME280;63360;50.104;8.074;2022-09-29T09:25:17;95843.59;;;8.91;95.50
74708;BME280;63360;50.104;8.074;2022-09-29T09:27:58;95832.75;;;8.89;93.49
74708;BME280;63360;50.104;8.074;2022-09-29T09:30:37;95832.75;;;8.89;94.65
74708;BME280;63360;50.104;8.074;2022-09-29T09:33:09;95836.13;;;9.01;92.69
74708;BME280;63360;50.104;8.074;2022-09-29T09:36:08;95838.16;;;9.08;90.83
74708;BME280;63360;50.104;8.074;2022-09-29T09:38:56;95846.34;;;9.22;93.18
74708;BME280;63360;50.104;8.074;2022-09-29T09:41:25;95842.00;;;9.26;91.06
74708;BME280;63360;50.104;8.074;2022-09-29T09:44:16;95851.84;;;9.33;88.73
74708;BME280;63360;50.104;8.074;2022-09-29T09:49:38;95843.38;;;9.48;87.29
74708;BME280;63360;50.104;8.074;2022-09-29T09:52:20;95838.94;;;9.48;86.64
74708;BME280;63360;50.104;8.074;2022-09-29T09:54:53;95838.28;;;9.51;86.55
74708;BME280;63360;50.104;8.074;2022-09-29T09:57:35;95848.31;;;9.53;87.45
74708;BME280;63360;50.104;8.074;2022-09-29T10:01:06;95850.38;;;9.59;83.54
74708;BME280;63360;50.104;8.074;2022-09-29T10:03:03;95838.16;;;9.60;85.54
74708;BME280;63360;50.104;8.074;2022-09-29T10:05:39;95853.66;;;9.72;85.95
74708;BME280;63360;50.104;8.074;2022-09-29T10:08:09;95857.56;;;9.78;87.51
74708;BME280;63360;50.104;8.074;2022-09-29T10:10:39;95853.88;;;9.79;87.24
74708;BME280;63360;50.104;8.074;2022-09-29T10:13:24;95854.94;;;9.78;86.11
74708;BME280;63360;50.104;8.074;2022-09-29T10:18:40;95849.47;;;9.95;86.64
74708;BME280;63360;50.104;8.074;2022-09-29T10:21:33;95853.75;;;10.03;88.40
74708;BME280;63360;50.104;8.074;2022-09-29T10:24:02;95853.44;;;10.05;89.38
74708;BME280;63360;50.104;8.074;2022-09-29T10:26:49;95858.53;;;10.01;86.80
74708;BME280;63360;50.104;8.074;2022-09-29T10:29:24;95861.22;;;10.05;87.14
74708;BME280;63360;50.104;8.074;2022-09-29T10:34:28;95855.16;;;10.13;87.84
74708;BME280;63360;50.104;8.074;2022-09-29T10:36:59;95857.63;;;10.09;87.32
74708;BME280;63360;50.104;8.074;2022-09-29T10:39:39;95864.88;;;10.16;84.65
74708;BME280;63360;50.104;8.074;2022-09-29T10:42:34;95858.50;;;10.13;85.31
74708;BME280;63360;50.104;8.074;2022-09-29T10:47:37;95868.66;;;10.18;84.91
74708;BME280;63360;50.104;8.074;2022-09-29T10:52:35;95864.00;;;10.12;85.71
74708;BME280;63360;50.104;8.074;2022-09-29T10:55:03;95868.78;;;10.10;87.22
74708;BME280;63360;50.104;8.074;2022-09-29T10:57:32;95871.91;;;10.15;87.11
74708;BME280;63360;50.104;8.074;2022-09-29T10:59:59;95878.03;;;10.23;87.95
74708;BME280;63360;50.104;8.074;2022-09-29T11:02:33;95869.06;;;10.20;85.07
74708;BME280;63360;50.104;8.074;2022-09-29T11:05:15;95872.13;;;10.10;84.96
74708;BME280;63360;50.104;8.074;2022-09-29T11:07:43;95877.13;;;10.15;86.48
74708;BME280;63360;50.104;8.074;2022-09-29T11:10:34;95882.94;;;10.24;86.38
74708;BME280;63360;50.104;8.074;2022-09-29T11:15:47;95876.97;;;10.24;89.15
74708;BME280;63360;50.104;8.074;2022-09-29T11:18:20;95885.84;;;10.23;88.67
74708;BME280;63360;50.104;8.074;2022-09-29T11:20:54;95879.13;;;10.22;91.22
74708;BME280;63360;50.104;8.074;2022-09-29T11:23:30;95873.13;;;10.33;89.57
74708;BME280;63360;50.104;8.074;2022-09-29T11:26:18;95878.22;;;10.30;88.05
74708;BME280;63360;50.104;8.074;2022-09-29T11:34:56;95882.50;;;10.38;84.01
74708;BME280;63360;50.104;8.074;2022-09-29T11:40:23;95887.13;;;10.45;82.26
74708;BME280;63360;50.104;8.074;2022-09-29T11:43:01;95884.63;;;10.48;81.76
74708;BME280;63360;50.104;8.074;2022-09-29T11:49:04;95893.69;;;10.54;79.66
74708;BME280;63360;50.104;8.074;2022-09-29T11:52:03;95898.22;;;10.57;82.85
74708;BME280;63360;50.104;8.074;2022-09-29T11:57:19;95889.31;;;10.74;84.44
74708;BME280;63360;50.104;8.074;2022-09-29T12:00:16;95888.00;;;10.80;85.62
74708;BME280;63360;50.104;8.074;2022-09-29T12:03:19;95888.00;;;10.80;80.30
74708;BME280;63360;50.104;8.074;2022-09-29T12:06:15;95876.06;;;10.79;79.86
74708;BME280;63360;50.104;8.074;2022-09-29T12:17:13;95883.41;;;11.08;81.27
74708;BME280;63360;50.104;8.074;2022-09-29T12:19:42;95883.69;;;11.03;81.48
74708;BME280;63360;50.104;8.074;2022-09-29T12:22:14;95893.16;;;11.11;82.61
74708;BME280;63360;50.104;8.074;2022-09-29T12:24:49;95887.19;;;11.11;81.64
74708;BME280;63360;50.104;8.074;2022-09-29T12:27:27;95878.56;;;11.07;78.42
74708;BME280;63360;50.104;8.074;2022-09-29T12:30:01;95889.59;;;11.35;76.24
74708;BME280;63360;50.104;8.074;2022-09-29T12:32:37;95894.16;;;11.22;76.33
74708;BME280;63360;50.104;8.074;2022-09-29T12:35:19;95881.22;;;11.10;76.80
74708;BME280;63360;50.104;8.074;2022-09-29T12:37:55;95888.78;;;11.15;79.35
74708;BME280;63360;50.104;8.074;2022-09-29T12:46:32;95884.78;;;11.37;76.47
74708;BME280;63360;50.104;8.074;2022-09-29T12:49:13;95888.91;;;11.38;77.12
74708;BME280;63360;50.104;8.074;2022-09-29T12:51:48;95888.09;;;11.18;78.67
74708;BME280;63360;50.104;8.074;2022-09-29T12:57:01;95881.44;;;11.02;78.95
74708;BME280;63360;50.104;8.074;2022-09-29T13:16:15;95888.13;;;11.03;82.35
74708;BME280;63360;50.104;8.074;2022-09-29T13:19:11;95870.72;;;11.22;80.03
74708;BME280;63360;50.104;8.074;2022-09-29T13:28:31;95885.22;;;11.23;78.75
74708;BME280;63360;50.104;8.074;2022-09-29T13:31:02;95872.69;;;11.10;74.30
74708;BME280;63360;50.104;8.074;2022-09-29T13:33:32;95879.06;;;11.12;73.75
74708;BME280;63360;50.104;8.074;2022-09-29T13:36:00;95891.88;;;11.21;75.62
74708;BME280;63360;50.104;8.074;2022-09-29T13:38:32;95887.38;;;11.37;70.95
74708;BME280;63360;50.104;8.074;2022-09-29T13:46:35;95899.00;;;11.24;71.87
74708;BME280;63360;50.104;8.074;2022-09-29T13:49:23;95908.31;;;11.40;68.46
74708;BME280;63360;50.104;8.074;2022-09-29T13:51:54;95909.81;;;11.26;72.05
74708;BME280;63360;50.104;8.074;2022-09-29T13:54:22;95911.84;;;11.32;71.26
74708;BME280;63360;50.104;8.074;2022-09-29T13:59:20;95910.69;;;11.30;67.37
74708;BME280;63360;50.104;8.074;2022-09-29T14:01:48;95913.78;;;11.35;68.23
74708;BME280;63360;50.104;8.074;2022-09-29T14:07:05;95913.88;;;11.08;70.89
74708;BME280;63360;50.104;8.074;2022-09-29T14:09:35;95911.53;;;11.18;68.19
74708;BME280;63360;50.104;8.074;2022-09-29T14:12:08;95919.28;;;11.15;71.90
74708;BME280;63360;50.104;8.074;2022-09-29T14:14:44;95909.78;;;11.07;70.96
74708;BME280;63360;50.104;8.074;2022-09-29T14:17:34;95914.16;;;11.03;70.42
74708;BME280;63360;50.104;8.074;2022-09-29T14:20:25;95904.41;;;11.00;72.49
74708;BME280;63360;50.104;8.074;2022-09-29T14:23:05;95922.72;;;11.03;65.73
74708;BME280;63360;50.104;8.074;2022-09-29T14:28:08;95926.59;;;10.93;68.95
74708;BME280;63360;50.104;8.074;2022-09-29T14:38:42;95931.97;;;10.85;73.94
74708;BME280;63360;50.104;8.074;2022-09-29T14:43:54;95942.44;;;10.88;75.52
74708;BME280;63360;50.104;8.074;2022-09-29T14:46:47;95949.50;;;10.88;79.47
74708;BME280;63360;50.104;8.074;2022-09-29T14:49:49;95952.16;;;10.91;79.64
74708;BME280;63360;50.104;8.074;2022-09-29T14:53:09;95941.59;;;10.84;81.18
74708;BME280;63360;50.104;8.074;2022-09-29T14:56:01;95958.03;;;10.88;80.28
74708;BME280;63360;50.104;8.074;2022-09-29T15:01:26;95953.59;;;10.89;82.85
74708;BME280;63360;50.104;8.074;2022-09-29T15:03:56;95959.56;;;10.89;79.36
74708;BME280;63360;50.104;8.074;2022-09-29T15:06:27;95959.16;;;10.87;80.05
74708;BME280;63360;50.104;8.074;2022-09-29T15:11:24;95965.09;;;10.88;81.07
74708;BME280;63360;50.104;8.074;2022-09-29T15:13:53;95951.19;;;10.80;81.60
74708;BME280;63360;50.104;8.074;2022-09-29T15:16:32;95950.06;;;10.81;80.20
74708;BME280;63360;50.104;8.074;2022-09-29T15:19:17;95949.31;;;10.81;81.85
74708;BME280;63360;50.104;8.074;2022-09-29T15:22:07;95960.47;;;10.81;79.23
74708;BME280;63360;50.104;8.074;2022-09-29T15:24:45;95963.59;;;10.87;79.61
74708;BME280;63360;50.104;8.074;2022-09-29T15:27:15;95959.97;;;10.76;77.54
74708;BME280;63360;50.104;8.074;2022-09-29T15:29:54;95969.38;;;10.80;80.47
74708;BME280;63360;50.104;8.074;2022-09-29T15:32:23;95963.66;;;10.75;81.77
74708;BME280;63360;50.104;8.074;2022-09-29T15:34:51;95958.13;;;10.76;82.04
74708;BME280;63360;50.104;8.074;2022-09-29T15:37:21;95964.34;;;10.72;82.11
74708;BME280;63360;50.104;8.074;2022-09-29T15:39:50;95966.59;;;10.73;82.79